Hare, North Carolina
Current Conditions -  °F | °C
As of 8:35 AM on Friday 19 Dec 2014 (Local Time) from KUKF Reporting Station
Broken Clouds Broken Clouds  
Wind Chill: 33°   Ceiling: 5000
Heat Index: 37°   Visibility: 10mi
Dew Point: 23°   Wind: 6mph
Humidity: 56%   Direction: 320°NW
Pressure: 30.2"   Gusts: NA
Location:  36.4437°N, 81.0178°W
Report Text: KUKF 191335Z AUTO 32005KT 10SM BKN050 03/M05 A3020 RMK AO2
Loading
Personal Weather Stations






























Interactive Weather Map New forecast layout! Learn more

10-Day Weather Forecast

Advertisements
Track Severe Weather on mobile